Time;durP1;ratioP1;P1;durP2;ratioP2;P2;SDS_P1;SDS_P2;PMS_P1;PMS_P2;Temp;Humidity;BMP_temperature;BMP_pressure;BME280_temperature;BME280_humidity;BME280_pressure;Samples;Min_cycle;Max_cycle;Signal;HPM_P1;HPM_P2
2024/03/15 00:00:56;;;;;;;4.80;2.97;;;;;12.20;98047.00;;;;4939242;29;20079;-67
2024/03/15 00:03:23;;;;;;;4.45;3.20;;;;;12.10;98039.00;;;;4955749;28;20090;-67
2024/03/15 00:05:50;;;;;;;7.68;3.50;;;;;12.00;98054.00;;;;4955191;29;20567;-67
2024/03/15 00:08:17;;;;;;;4.13;3.55;;;;;12.00;98046.00;;;;4955005;29;20054;-67
2024/03/15 00:10:44;;;;;;;3.90;2.80;;;;;12.00;98048.00;;;;4938861;29;20500;-67
2024/03/15 00:13:11;;;;;;;3.53;2.90;;;;;12.00;98049.00;;;;4938926;29;20138;-67
2024/03/15 00:15:39;;;;;;;5.43;2.88;;;;;12.00;98052.00;;;;4946496;29;20054;-67
2024/03/15 00:18:07;;;;;;;4.05;2.47;;;;;12.00;98045.00;;;;4974226;28;20097;-67
2024/03/15 00:20:34;;;;;;;4.53;2.83;;;;;11.90;98043.00;;;;4941887;28;20137;-66
2024/03/15 00:23:01;;;;;;;5.50;3.10;;;;;11.90;98038.00;;;;4958172;28;20043;-67
2024/03/15 00:25:27;;;;;;;4.63;3.00;;;;;12.00;98045.00;;;;4975226;28;20093;-67
2024/03/15 00:27:54;;;;;;;4.78;3.30;;;;;12.00;98042.00;;;;4958054;28;20144;-67
2024/03/15 00:30:22;;;;;;;5.10;3.22;;;;;12.00;98041.00;;;;4957800;28;20049;-67
2024/03/15 00:32:51;;;;;;;5.32;3.22;;;;;11.90;98042.00;;;;4975443;28;20050;-67
2024/03/15 00:35:20;;;;;;;5.65;2.90;;;;;11.90;98040.00;;;;4957929;28;20522;-66
2024/03/15 00:37:47;;;;;;;5.18;2.70;;;;;11.90;98032.00;;;;4957902;28;20563;-67
2024/03/15 00:40:13;;;;;;;3.72;3.15;;;;;11.90;98042.00;;;;4975632;28;20041;-67
2024/03/15 00:42:41;;;;;;;4.50;2.97;;;;;11.90;98032.00;;;;4974157;28;20047;-68
2024/03/15 00:45:09;;;;;;;5.13;3.20;;;;;12.00;98034.00;;;;4952856;28;20070;-67
2024/03/15 00:47:36;;;;;;;6.45;3.40;;;;;12.00;98034.00;;;;4941966;28;20080;-67
2024/03/15 00:50:04;;;;;;;5.60;3.58;;;;;12.00;98026.00;;;;4975137;28;20035;-68
2024/03/15 00:52:30;;;;;;;2.70;2.50;;;;;12.10;98036.00;;;;4974905;28;20053;-68
2024/03/15 00:54:57;;;;;;;4.43;3.22;;;;;12.20;98033.00;;;;4975035;28;20051;-67
2024/03/15 00:57:23;;;;;;;6.55;3.25;;;;;12.40;98033.00;;;;4975271;28;20090;-69
2024/03/15 00:59:50;;;;;;;5.20;2.97;;;;;12.60;98038.00;;;;4957905;28;20109;-69
2024/03/15 01:02:17;;;;;;;4.30;3.17;;;;;12.70;98027.00;;;;4974662;28;20057;-69
2024/03/15 01:04:44;;;;;;;3.63;2.70;;;;;12.90;98039.00;;;;4975220;28;20496;-69
2024/03/15 01:07:11;;;;;;;6.10;3.58;;;;;12.90;98034.00;;;;4975176;28;20046;-69
2024/03/15 01:09:37;;;;;;;5.38;3.22;;;;;13.00;98034.00;;;;4973974;28;20051;-68
2024/03/15 01:12:04;;;;;;;3.15;2.67;;;;;13.10;98036.00;;;;4957385;28;20047;-68
2024/03/15 01:14:31;;;;;;;4.35;3.28;;;;;13.20;98035.00;;;;4938867;28;20057;-68
2024/03/15 01:16:58;;;;;;;5.60;2.97;;;;;13.30;98032.00;;;;4966979;28;20045;-68
2024/03/15 01:19:26;;;;;;;6.65;3.13;;;;;13.40;98037.00;;;;4973222;28;20047;-68
2024/03/15 01:21:53;;;;;;;5.55;3.05;;;;;13.30;98027.00;;;;4972597;28;20047;-65
2024/03/15 01:24:20;;;;;;;6.88;3.33;;;;;13.30;98028.00;;;;4974142;28;20089;-65
2024/03/15 01:26:46;;;;;;;6.07;3.40;;;;;13.30;98030.00;;;;4974359;28;20050;-68
2024/03/15 01:29:13;;;;;;;5.68;3.17;;;;;13.40;98028.00;;;;4974120;28;20038;-68
2024/03/15 01:31:40;;;;;;;3.83;2.92;;;;;13.40;98028.00;;;;4957216;28;20133;-68
2024/03/15 01:34:10;;;;;;;5.18;2.95;;;;;13.30;98028.00;;;;4958491;28;20066;-68
2024/03/15 01:36:36;;;;;;;4.00;2.80;;;;;13.20;98026.00;;;;4974559;28;20092;-68
2024/03/15 01:39:05;;;;;;;4.53;3.38;;;;;13.20;98026.00;;;;4957024;28;20047;-68
2024/03/15 01:41:31;;;;;;;3.88;3.13;;;;;13.20;98024.00;;;;4940546;28;20117;-68
2024/03/15 01:43:59;;;;;;;6.20;3.45;;;;;13.20;98012.00;;;;4970948;28;20051;-65
2024/03/15 01:46:26;;;;;;;4.38;3.40;;;;;13.20;98018.00;;;;4940613;28;20121;-65
2024/03/15 01:48:53;;;;;;;5.38;3.72;;;;;13.20;98017.00;;;;4973800;28;20470;-68
2024/03/15 01:51:20;;;;;;;5.22;2.97;;;;;13.20;98012.00;;;;4973501;28;20480;-68
2024/03/15 01:53:46;;;;;;;5.10;3.08;;;;;13.30;98013.00;;;;4974226;28;20055;-68
2024/03/15 01:56:13;;;;;;;3.97;3.42;;;;;13.30;98011.00;;;;4957411;28;20547;-68
2024/03/15 01:58:39;;;;;;;3.67;3.35;;;;;13.30;98013.00;;;;4974075;28;20074;-68
2024/03/15 02:01:06;;;;;;;4.57;2.97;;;;;13.20;98013.00;;;;4973510;28;20050;-68
2024/03/15 02:03:34;;;;;;;6.35;2.90;;;;;13.30;98012.00;;;;4956175;28;20050;-69
2024/03/15 02:06:01;;;;;;;5.97;3.40;;;;;13.30;98011.00;;;;4956478;28;20047;-70
2024/03/15 02:08:27;;;;;;;4.65;3.13;;;;;13.30;98021.00;;;;4973469;28;20105;-68
2024/03/15 02:10:54;;;;;;;6.05;3.10;;;;;13.30;98010.00;;;;4973229;28;20042;-68
2024/03/15 02:13:21;;;;;;;4.45;3.45;;;;;13.20;98014.00;;;;4972982;28;20038;-68
2024/03/15 02:15:47;;;;;;;3.35;2.83;;;;;13.20;98009.00;;;;4964526;28;20051;-69
2024/03/15 02:18:14;;;;;;;4.05;3.17;;;;;13.20;98009.00;;;;4933701;29;20051;-68
2024/03/15 02:20:41;;;;;;;6.15;3.88;;;;;13.20;98012.00;;;;4917781;29;20464;-68
2024/03/15 02:23:08;;;;;;;3.97;2.55;;;;;13.20;98010.00;;;;4933710;29;20052;-69
2024/03/15 02:25:36;;;;;;;5.88;2.75;;;;;13.20;98022.00;;;;4934870;29;20040;-68
2024/03/15 02:28:06;;;;;;;3.72;3.28;;;;;13.20;98013.00;;;;4934973;29;20075;-68
2024/03/15 02:30:32;;;;;;;5.63;3.10;;;;;13.20;98014.00;;;;4917378;29;20054;-68
2024/03/15 02:32:59;;;;;;;5.13;3.03;;;;;13.20;98007.00;;;;4934888;29;20051;-68
2024/03/15 02:35:26;;;;;;;4.63;2.85;;;;;13.20;98012.00;;;;4918131;29;20564;-69
2024/03/15 02:37:58;;;;;;;3.47;2.78;;;;;13.20;98007.00;;;;4933660;29;20058;-69
2024/03/15 02:40:24;;;;;;;3.05;2.72;;;;;13.20;98011.00;;;;4917431;29;20079;-68
2024/03/15 02:42:51;;;;;;;4.65;2.97;;;;;13.20;98009.00;;;;4934826;29;20127;-68
2024/03/15 02:45:21;;;;;;;4.53;3.00;;;;;13.20;98015.00;;;;4956321;28;20470;-68
2024/03/15 02:47:48;;;;;;;4.50;2.75;;;;;13.20;98008.00;;;;4969496;28;20106;-68
2024/03/15 02:50:15;;;;;;;4.85;3.38;;;;;13.20;98016.00;;;;4972881;28;20043;-65
2024/03/15 02:52:43;;;;;;;3.58;2.85;;;;;13.10;98014.00;;;;4971664;28;20570;-66
2024/03/15 02:55:10;;;;;;;3.38;2.72;;;;;13.10;98006.00;;;;4972978;28;20161;-66
2024/03/15 02:57:37;;;;;;;6.22;3.03;;;;;13.00;98022.00;;;;4955625;28;20089;-66
2024/03/15 03:00:04;;;;;;;5.07;2.90;;;;;13.00;98025.00;;;;4971703;28;20039;-65
2024/03/15 03:02:31;;;;;;;4.95;2.80;;;;;13.00;98034.00;;;;4972701;28;20404;-68
2024/03/15 03:04:57;;;;;;;7.18;3.30;;;;;12.90;98031.00;;;;4972882;28;20134;-68
2024/03/15 03:07:24;;;;;;;4.32;2.70;;;;;13.00;98040.00;;;;4972944;28;20122;-68
2024/03/15 03:09:51;;;;;;;6.32;2.90;;;;;12.90;98040.00;;;;4972909;28;20038;-69
2024/03/15 03:12:18;;;;;;;5.35;2.65;;;;;12.90;98042.00;;;;4972588;28;20069;-68
2024/03/15 03:14:45;;;;;;;3.78;2.63;;;;;12.90;98045.00;;;;4970147;28;20047;-68
2024/03/15 03:17:13;;;;;;;4.95;2.90;;;;;12.90;98048.00;;;;4931723;28;20050;-68
2024/03/15 03:19:39;;;;;;;4.00;2.70;;;;;12.90;98037.00;;;;4971583;28;20606;-69
2024/03/15 03:22:06;;;;;;;4.10;2.60;;;;;12.90;98040.00;;;;4955278;28;20050;-68
2024/03/15 03:24:33;;;;;;;5.03;2.88;;;;;12.90;98040.00;;;;4955515;28;20422;-68
2024/03/15 03:26:59;;;;;;;3.20;2.42;;;;;12.90;98037.00;;;;4976501;28;20054;-69
2024/03/15 03:29:26;;;;;;;2.70;2.30;;;;;12.80;98040.00;;;;4958953;28;20047;-68
2024/03/15 03:31:53;;;;;;;3.17;2.42;;;;;12.80;98035.00;;;;4976157;28;20057;-68
2024/03/15 03:34:20;;;;;;;4.32;2.63;;;;;12.80;98035.00;;;;4976685;28;20058;-69
2024/03/15 03:36:46;;;;;;;3.65;2.90;;;;;12.80;98034.00;;;;4977516;28;20043;-68
2024/03/15 03:39:13;;;;;;;3.65;2.40;;;;;12.80;98039.00;;;;4976395;28;20484;-68
2024/03/15 03:41:40;;;;;;;3.88;2.35;;;;;12.80;98039.00;;;;4976177;28;20074;-68
2024/03/15 03:44:07;;;;;;;3.72;2.65;;;;;12.80;98044.00;;;;4973320;28;20083;-68
2024/03/15 03:46:34;;;;;;;5.32;2.53;;;;;12.80;98045.00;;;;4966725;28;20082;-68
2024/03/15 03:49:01;;;;;;;6.07;2.45;;;;;12.80;98044.00;;;;4959019;28;20435;-68
2024/03/15 03:51:27;;;;;;;4.30;2.45;;;;;12.70;98047.00;;;;4958338;28;20053;-68
2024/03/15 03:53:56;;;;;;;4.60;2.72;;;;;12.70;98044.00;;;;4958643;28;20042;-69
2024/03/15 03:56:23;;;;;;;5.35;2.70;;;;;12.70;98046.00;;;;4975999;28;20093;-68
2024/03/15 03:58:49;;;;;;;4.32;2.38;;;;;12.70;98056.00;;;;4958519;28;20145;-68
2024/03/15 04:01:16;;;;;;;3.17;2.20;;;;;12.70;98057.00;;;;4975605;28;20045;-68
2024/03/15 04:03:48;;;;;;;3.33;2.22;;;;;12.70;98061.00;;;;4975735;28;20050;-68
2024/03/15 04:06:16;;;;;;;3.80;3.00;;;;;12.70;98065.00;;;;4942766;28;20468;-68
2024/03/15 04:08:42;;;;;;;4.05;2.47;;;;;12.70;98062.00;;;;4975829;28;20070;-68
2024/03/15 04:11:09;;;;;;;4.50;2.55;;;;;12.70;98067.00;;;;4977235;28;20109;-69
2024/03/15 04:13:36;;;;;;;3.15;2.25;;;;;12.70;98066.00;;;;4958444;28;20070;-68
2024/03/15 04:16:04;;;;;;;3.50;2.40;;;;;12.70;98075.00;;;;4949019;28;20054;-68
2024/03/15 04:18:32;;;;;;;5.05;2.58;;;;;12.70;98068.00;;;;4958523;28;20050;-68
2024/03/15 04:20:59;;;;;;;3.00;2.15;;;;;12.70;98074.00;;;;4975231;28;20043;-68
2024/03/15 04:23:26;;;;;;;5.30;2.40;;;;;12.70;98071.00;;;;4975487;28;20121;-68
2024/03/15 04:25:54;;;;;;;4.93;2.40;;;;;12.70;98070.00;;;;4975285;28;20057;-69
2024/03/15 04:28:22;;;;;;;2.70;2.45;;;;;12.70;98067.00;;;;4975390;28;20125;-68
2024/03/15 04:30:48;;;;;;;4.18;2.25;;;;;12.70;98068.00;;;;4957667;28;20039;-68
2024/03/15 04:33:16;;;;;;;2.47;2.25;;;;;12.70;98079.00;;;;4975238;28;20050;-69
2024/03/15 04:35:43;;;;;;;4.90;2.40;;;;;12.70;98061.00;;;;4975099;28;20057;-69
2024/03/15 04:38:10;;;;;;;3.67;2.65;;;;;12.70;98074.00;;;;4957088;28;20046;-68
2024/03/15 04:40:36;;;;;;;5.10;2.15;;;;;12.70;98080.00;;;;4974885;28;20047;-68
2024/03/15 04:43:03;;;;;;;5.15;2.60;;;;;12.70;98064.00;;;;4975079;28;20130;-68
2024/03/15 04:45:30;;;;;;;3.85;2.70;;;;;12.60;98069.00;;;;4966994;28;20105;-68
2024/03/15 04:47:57;;;;;;;3.38;2.42;;;;;12.60;98063.00;;;;4972525;28;20062;-66
2024/03/15 04:50:24;;;;;;;3.58;2.08;;;;;12.60;98067.00;;;;4974591;28;20500;-66
2024/03/15 04:52:53;;;;;;;4.75;2.17;;;;;12.60;98068.00;;;;4974974;28;20035;-66
2024/03/15 04:55:20;;;;;;;4.90;2.30;;;;;12.60;98075.00;;;;4975253;28;20105;-65
2024/03/15 04:57:47;;;;;;;5.47;2.60;;;;;12.50;98072.00;;;;4975054;28;20078;-66
2024/03/15 05:00:18;;;;;;;5.43;2.45;;;;;12.50;98070.00;;;;4957488;28;20046;-68
2024/03/15 05:02:50;;;;;;;3.63;2.65;;;;;12.50;98069.00;;;;4974747;28;20068;-68
2024/03/15 05:05:20;;;;;;;3.47;2.15;;;;;12.50;98072.00;;;;4957721;28;20057;-68
2024/03/15 05:07:48;;;;;;;3.97;2.20;;;;;12.50;98069.00;;;;4974881;28;20047;-67
2024/03/15 05:10:15;;;;;;;7.32;2.58;;;;;12.50;98081.00;;;;4974640;28;20118;-69
2024/03/15 05:12:43;;;;;;;3.03;2.17;;;;;12.40;98079.00;;;;4974604;28;20066;-68
2024/03/15 05:15:10;;;;;;;4.07;2.03;;;;;12.50;98067.00;;;;4951553;28;20051;-67
2024/03/15 05:17:38;;;;;;;4.32;2.05;;;;;12.50;98072.00;;;;4952425;28;20042;-68
2024/03/15 05:20:12;;;;;;;4.93;2.40;;;;;12.50;98075.00;;;;4974305;28;20043;-68
2024/03/15 05:22:39;;;;;;;4.20;2.05;;;;;12.50;98071.00;;;;4974335;28;20058;-69
2024/03/15 05:25:10;;;;;;;2.83;2.28;;;;;12.40;98074.00;;;;4957264;28;20043;-67
2024/03/15 05:27:38;;;;;;;3.28;2.03;;;;;12.40;98063.00;;;;4976040;28;20578;-68
2024/03/15 05:30:05;;;;;;;6.20;2.50;;;;;12.40;98069.00;;;;4974424;28;20050;-67
2024/03/15 05:32:32;;;;;;;4.80;2.65;;;;;12.40;98077.00;;;;4956999;28;20560;-67
2024/03/15 05:35:00;;;;;;;3.42;2.47;;;;;12.30;98079.00;;;;4974655;28;20510;-68
2024/03/15 05:37:28;;;;;;;4.22;2.60;;;;;12.30;98070.00;;;;4974409;28;20054;-67
2024/03/15 05:39:55;;;;;;;4.70;2.50;;;;;12.30;98073.00;;;;4974198;28;20053;-67
2024/03/15 05:42:22;;;;;;;4.13;2.45;;;;;12.30;98071.00;;;;4973959;28;20053;-68
2024/03/15 05:44:49;;;;;;;3.83;2.60;;;;;12.30;98085.00;;;;4971310;28;20042;-68
2024/03/15 05:47:16;;;;;;;4.05;2.55;;;;;12.30;98075.00;;;;4958257;28;20051;-67
2024/03/15 05:49:43;;;;;;;4.53;2.58;;;;;12.30;98078.00;;;;4973792;28;20057;-67
2024/03/15 05:52:10;;;;;;;4.60;2.30;;;;;12.30;98076.00;;;;4973775;28;20057;-68
2024/03/15 05:54:37;;;;;;;3.75;2.75;;;;;12.30;98084.00;;;;4973747;28;20047;-67
2024/03/15 05:57:05;;;;;;;3.00;2.45;;;;;12.30;98080.00;;;;4974418;28;20054;-68
2024/03/15 05:59:31;;;;;;;8.02;3.50;;;;;12.30;98084.00;;;;4974335;28;20396;-67
2024/03/15 06:01:58;;;;;;;5.28;2.72;;;;;12.30;98089.00;;;;4974085;28;20119;-68
2024/03/15 06:04:25;;;;;;;3.25;2.80;;;;;12.40;98090.00;;;;4956856;28;20058;-68
2024/03/15 06:06:52;;;;;;;4.55;2.70;;;;;12.40;98095.00;;;;4973949;28;20384;-67
2024/03/15 06:09:19;;;;;;;5.35;2.88;;;;;12.40;98098.00;;;;4973918;28;20455;-68
2024/03/15 06:11:48;;;;;;;6.93;2.72;;;;;12.50;98095.00;;;;4940328;28;20047;-67
2024/03/15 06:14:14;;;;;;;3.13;2.47;;;;;12.50;98111.00;;;;4953623;28;20134;-67
2024/03/15 06:16:41;;;;;;;4.13;2.65;;;;;12.50;98105.00;;;;4965377;28;20039;-67
2024/03/15 06:19:08;;;;;;;4.05;2.80;;;;;12.60;98113.00;;;;4973608;28;20053;-67
2024/03/15 06:21:36;;;;;;;4.15;2.60;;;;;12.70;98106.00;;;;4973178;28;20053;-68
2024/03/15 06:24:03;;;;;;;6.18;2.63;;;;;12.70;98110.00;;;;4973476;28;20150;-67
2024/03/15 06:26:30;;;;;;;3.95;2.20;;;;;12.80;98112.00;;;;4973596;28;20583;-66
2024/03/15 06:28:57;;;;;;;4.13;2.70;;;;;12.90;98116.00;;;;4973363;28;20053;-66
2024/03/15 06:31:24;;;;;;;5.05;2.95;;;;;12.90;98109.00;;;;4957540;28;20039;-67
2024/03/15 06:33:51;;;;;;;6.22;2.78;;;;;13.00;98111.00;;;;4974144;28;20105;-67
2024/03/15 06:36:18;;;;;;;5.22;3.08;;;;;13.20;98107.00;;;;4972104;28;20047;-67
2024/03/15 06:41:19;;;;;;;3.70;2.28;;;;;13.40;98098.00;;;;4971884;28;20137;-67
2024/03/15 06:43:47;;;;;;;6.32;2.63;;;;;13.50;98103.00;;;;4971393;28;20043;-67
2024/03/15 06:46:23;;;;;;;6.60;2.90;;;;;13.60;98110.00;;;;4963880;28;20500;-67
2024/03/15 06:48:57;;;;;;;4.75;2.78;;;;;13.60;98107.00;;;;4973128;28;20055;-67
2024/03/15 06:54:14;;;;;;;6.25;2.97;;;;;13.60;98120.00;;;;4972904;28;20057;-66
2024/03/15 06:56:44;;;;;;;4.25;2.50;;;;;13.50;98119.00;;;;4972876;28;20419;-66
2024/03/15 06:59:11;;;;;;;6.10;2.90;;;;;13.50;98123.00;;;;4972979;28;20057;-67
2024/03/15 07:01:38;;;;;;;5.05;2.90;;;;;13.50;98127.00;;;;4975843;28;20042;-67
2024/03/15 07:04:08;;;;;;;4.80;3.00;;;;;13.50;98108.00;;;;4976862;28;20134;-66
2024/03/15 07:06:35;;;;;;;6.35;3.08;;;;;13.50;98121.00;;;;4959602;28;20578;-66
2024/03/15 07:09:05;;;;;;;3.97;3.00;;;;;13.50;98119.00;;;;4976833;28;20066;-67
2024/03/15 07:11:34;;;;;;;6.47;3.40;;;;;13.40;98123.00;;;;4976630;28;20559;-66
2024/03/15 07:14:05;;;;;;;11.20;3.50;;;;;13.40;98124.00;;;;4973856;28;20047;-66
2024/03/15 07:16:31;;;;;;;7.97;3.45;;;;;13.40;98129.00;;;;4935679;28;20042;-67
2024/03/15 07:19:00;;;;;;;8.25;3.88;;;;;13.40;98124.00;;;;4959317;28;20051;-67
2024/03/15 07:21:27;;;;;;;7.70;3.22;;;;;13.30;98128.00;;;;4975082;28;20126;-67
2024/03/15 07:23:53;;;;;;;8.70;3.33;;;;;13.30;98126.00;;;;4975166;28;20583;-66
2024/03/15 07:26:22;;;;;;;4.78;3.10;;;;;13.20;98135.00;;;;4976462;28;20082;-66
2024/03/15 07:28:48;;;;;;;5.20;3.70;;;;;13.20;98140.00;;;;4959416;28;20126;-66
2024/03/15 07:31:15;;;;;;;6.47;3.22;;;;;13.20;98141.00;;;;4976245;28;20041;-67
2024/03/15 07:33:42;;;;;;;5.32;3.42;;;;;13.20;98133.00;;;;4958982;28;20146;-66
2024/03/15 07:36:13;;;;;;;6.85;3.63;;;;;13.30;98137.00;;;;4976339;28;20101;-66
2024/03/15 07:38:41;;;;;;;4.75;3.40;;;;;13.40;98133.00;;;;4959238;28;20130;-67
2024/03/15 07:41:11;;;;;;;4.53;3.15;;;;;13.40;98134.00;;;;4975902;28;20042;-66
2024/03/15 07:43:37;;;;;;;7.00;3.17;;;;;13.40;98141.00;;;;4958068;28;20053;-67
2024/03/15 07:46:05;;;;;;;4.55;3.35;;;;;13.40;98139.00;;;;4947964;29;20575;-66
2024/03/15 07:48:32;;;;;;;6.13;3.60;;;;;13.40;98139.00;;;;4939835;29;20051;-66
2024/03/15 07:50:59;;;;;;;6.95;3.63;;;;;13.40;98143.00;;;;4955402;29;20511;-66
2024/03/15 07:53:26;;;;;;;7.18;3.90;;;;;13.40;98146.00;;;;4957458;29;20039;-66
2024/03/15 07:55:54;;;;;;;4.90;3.75;;;;;13.40;98140.00;;;;4956988;29;20058;-66
2024/03/15 07:58:20;;;;;;;6.30;4.10;;;;;13.40;98152.00;;;;4957138;29;20142;-66
2024/03/15 08:00:47;;;;;;;5.72;4.20;;;;;13.40;98151.00;;;;4939538;29;20547;-66
2024/03/15 08:03:14;;;;;;;4.78;3.33;;;;;13.40;98154.00;;;;4955818;28;20057;-67
2024/03/15 08:05:42;;;;;;;4.85;3.42;;;;;13.40;98156.00;;;;4956662;28;20130;-66
2024/03/15 08:08:09;;;;;;;5.95;3.75;;;;;13.30;98156.00;;;;4956458;28;20047;-66
2024/03/15 08:10:36;;;;;;;4.68;3.00;;;;;13.30;98152.00;;;;4956348;29;20075;-66
2024/03/15 08:13:02;;;;;;;5.03;3.22;;;;;13.40;98157.00;;;;4954035;28;20059;-67
2024/03/15 08:15:32;;;;;;;4.68;3.33;;;;;13.30;98157.00;;;;4946883;29;20039;-67
2024/03/15 08:17:59;;;;;;;4.43;3.50;;;;;13.20;98157.00;;;;4973666;28;20074;-66
2024/03/15 08:20:26;;;;;;;5.35;3.80;;;;;13.10;98159.00;;;;4960047;28;20047;-67
2024/03/15 08:22:55;;;;;;;6.57;3.70;;;;;13.10;98168.00;;;;4976354;28;20074;-66
2024/03/15 08:25:23;;;;;;;4.32;2.95;;;;;13.10;98163.00;;;;4976152;28;20082;-66
2024/03/15 08:27:49;;;;;;;3.83;3.28;;;;;13.10;98164.00;;;;4975484;28;20050;-67
2024/03/15 08:30:17;;;;;;;4.47;2.97;;;;;13.10;98173.00;;;;4975199;28;20122;-66
2024/03/15 08:32:45;;;;;;;6.80;3.40;;;;;13.00;98173.00;;;;4974294;28;20034;-66
2024/03/15 08:35:14;;;;;;;6.22;3.67;;;;;13.00;98166.00;;;;4958468;28;20117;-66
2024/03/15 08:37:44;;;;;;;7.45;3.42;;;;;13.00;98166.00;;;;4975343;28;20078;-67
2024/03/15 08:40:13;;;;;;;4.10;3.20;;;;;13.00;98165.00;;;;4958599;28;20054;-66
2024/03/15 08:42:40;;;;;;;4.50;3.30;;;;;12.90;98163.00;;;;4976626;28;20126;-66
2024/03/15 08:45:08;;;;;;;4.15;3.13;;;;;12.90;98163.00;;;;4972206;28;20051;-66
2024/03/15 08:47:39;;;;;;;5.10;2.90;;;;;12.90;98173.00;;;;4953457;28;20054;-66
2024/03/15 08:50:32;;;;;;;4.22;3.13;;;;;12.90;98170.00;;;;4960696;28;20105;-67
2024/03/15 08:52:59;;;;;;;3.75;2.65;;;;;13.00;98174.00;;;;4975355;28;20122;-67
2024/03/15 08:55:26;;;;;;;3.20;2.80;;;;;13.00;98176.00;;;;4975309;28;20447;-66
2024/03/15 08:57:53;;;;;;;4.50;2.75;;;;;13.10;98179.00;;;;4957903;28;20066;-66
2024/03/15 09:00:20;;;;;;;4.72;2.83;;;;;13.10;98174.00;;;;4957462;28;20081;-66
2024/03/15 09:02:47;;;;;;;3.13;2.83;;;;;13.10;98182.00;;;;4975022;28;20043;-68
2024/03/15 09:05:14;;;;;;;5.28;3.10;;;;;13.20;98184.00;;;;4957913;28;20459;-68
2024/03/15 09:07:41;;;;;;;2.50;2.28;;;;;13.30;98177.00;;;;4975221;28;20050;-68
2024/03/15 09:10:13;;;;;;;5.85;3.55;;;;;13.40;98184.00;;;;4973675;28;20050;-68
2024/03/15 09:12:44;;;;;;;3.55;2.33;;;;;13.40;98185.00;;;;4974640;28;20410;-69
2024/03/15 09:15:12;;;;;;;3.47;2.35;;;;;13.60;98180.00;;;;4936154;28;20484;-69
2024/03/15 09:17:40;;;;;;;2.60;1.98;;;;;13.70;98182.00;;;;4952624;28;20145;-69
2024/03/15 09:22:48;;;;;;;3.97;2.10;;;;;13.80;98197.00;;;;4973900;28;20034;-69
2024/03/15 09:25:19;;;;;;;3.10;2.25;;;;;13.80;98191.00;;;;4940998;28;20133;-69
2024/03/15 09:27:48;;;;;;;3.97;2.47;;;;;13.90;98193.00;;;;4957218;28;20480;-69
2024/03/15 09:30:16;;;;;;;2.45;2.10;;;;;14.00;98201.00;;;;4957067;28;20105;-69
2024/03/15 09:32:44;;;;;;;3.25;2.13;;;;;14.00;98185.00;;;;4957248;28;20423;-69
2024/03/15 09:35:14;;;;;;;2.67;2.28;;;;;13.90;98197.00;;;;4956985;28;20455;-69
2024/03/15 09:37:50;;;;;;;3.13;2.42;;;;;13.80;98200.00;;;;4974172;28;20508;-69
2024/03/15 09:40:18;;;;;;;4.60;2.20;;;;;13.70;98191.00;;;;4941046;28;20491;-70
2024/03/15 09:42:48;;;;;;;2.38;2.17;;;;;13.80;98193.00;;;;4956905;28;20133;-68
2024/03/15 09:45:18;;;;;;;2.20;2.00;;;;;13.90;98192.00;;;;4967964;28;20404;-69
2024/03/15 09:47:52;;;;;;;3.10;2.20;;;;;14.00;98195.00;;;;4969996;28;20049;-68
2024/03/15 09:50:29;;;;;;;2.15;1.95;;;;;14.10;98187.00;;;;4956833;28;20054;-68
2024/03/15 09:52:57;;;;;;;2.05;1.85;;;;;14.20;98192.00;;;;4974007;28;20038;-71
2024/03/15 09:55:24;;;;;;;2.75;2.42;;;;;14.20;98186.00;;;;4974081;28;20097;-71
2024/03/15 09:57:51;;;;;;;2.20;2.00;;;;;14.20;98189.00;;;;4956913;28;20057;-71
2024/03/15 10:00:21;;;;;;;2.72;1.83;;;;;14.30;98185.00;;;;4940484;28;20061;-71
2024/03/15 10:02:53;;;;;;;2.45;2.25;;;;;14.40;98185.00;;;;4974380;28;20034;-70
2024/03/15 10:05:21;;;;;;;3.03;1.92;;;;;14.70;98184.00;;;;4956363;28;20105;-71
2024/03/15 10:07:52;;;;;;;2.33;1.92;;;;;14.80;98191.00;;;;4956617;28;20054;-70
2024/03/15 10:10:19;;;;;;;2.40;1.90;;;;;14.70;98187.00;;;;4956588;28;20046;-71
2024/03/15 10:12:47;;;;;;;2.28;1.92;;;;;14.70;98186.00;;;;4973962;28;20041;-71
2024/03/15 10:15:16;;;;;;;2.00;1.70;;;;;14.80;98179.00;;;;4962410;28;20079;-70
2024/03/15 10:17:46;;;;;;;3.65;2.30;;;;;14.80;98190.00;;;;4954362;28;20070;-71
2024/03/15 10:20:21;;;;;;;2.55;1.77;;;;;14.80;98199.00;;;;4954336;29;20508;-71
2024/03/15 10:22:51;;;;;;;3.55;2.20;;;;;14.70;98196.00;;;;4937761;29;20047;-71
2024/03/15 10:25:21;;;;;;;3.15;2.25;;;;;14.70;98198.00;;;;4937370;29;20039;-71
2024/03/15 10:27:54;;;;;;;4.88;2.50;;;;;14.70;98196.00;;;;4937951;29;20499;-71
2024/03/15 10:30:23;;;;;;;3.60;2.40;;;;;14.70;98190.00;;;;4954075;29;20114;-71
2024/03/15 10:32:51;;;;;;;2.50;2.30;;;;;14.80;98195.00;;;;4954292;29;20047;-71
2024/03/15 10:35:19;;;;;;;3.05;2.60;;;;;14.90;98200.00;;;;4953607;28;20110;-72
2024/03/15 10:37:47;;;;;;;4.55;2.83;;;;;15.00;98201.00;;;;4954712;29;20083;-71
2024/03/15 10:40:17;;;;;;;3.83;2.90;;;;;15.10;98199.00;;;;4970364;28;20075;-72
2024/03/15 10:42:49;;;;;;;5.85;2.72;;;;;15.20;98213.00;;;;4964011;29;20058;-72
2024/03/15 10:45:19;;;;;;;4.65;3.08;;;;;15.20;98210.00;;;;4947291;29;20043;-72
2024/03/15 10:47:47;;;;;;;4.88;2.90;;;;;15.10;98213.00;;;;4952834;28;20051;-72
2024/03/15 10:50:27;;;;;;;3.92;2.90;;;;;15.00;98219.00;;;;4973613;28;20058;-72
2024/03/15 10:52:55;;;;;;;4.43;3.10;;;;;14.90;98214.00;;;;4972458;28;20121;-72
2024/03/15 10:55:26;;;;;;;4.10;3.38;;;;;14.90;98218.00;;;;4956520;28;20054;-71
2024/03/15 10:57:55;;;;;;;4.63;3.10;;;;;14.90;98219.00;;;;4974476;28;20051;-72
2024/03/15 11:00:24;;;;;;;4.53;3.17;;;;;14.80;98220.00;;;;4956815;28;20055;-71
2024/03/15 11:02:56;;;;;;;6.60;3.40;;;;;14.70;98223.00;;;;4956451;28;20071;-71
2024/03/15 11:05:24;;;;;;;4.45;3.17;;;;;14.60;98222.00;;;;4972127;28;20047;-71
2024/03/15 11:08:07;;;;;;;5.53;3.35;;;;;14.50;98229.00;;;;4956530;28;20129;-72
2024/03/15 11:10:34;;;;;;;5.28;3.30;;;;;14.40;98235.00;;;;4956322;28;20046;-72
2024/03/15 11:13:03;;;;;;;6.63;3.45;;;;;14.40;98240.00;;;;4956123;28;20166;-72
2024/03/15 11:15:35;;;;;;;8.48;3.58;;;;;14.40;98233.00;;;;4948458;29;20043;-72
2024/03/15 11:18:07;;;;;;;4.78;3.30;;;;;14.30;98235.00;;;;4955944;28;20047;-72
2024/03/15 11:20:46;;;;;;;4.80;3.58;;;;;14.40;98240.00;;;;4973960;28;20070;-72
2024/03/15 11:23:14;;;;;;;4.68;3.42;;;;;14.40;98236.00;;;;4973034;28;20130;-72
2024/03/15 11:25:53;;;;;;;5.60;2.97;;;;;14.40;98233.00;;;;4957020;28;20057;-72
2024/03/15 11:28:20;;;;;;;4.50;3.00;;;;;14.40;98243.00;;;;4973484;28;20051;-71
2024/03/15 11:30:47;;;;;;;4.70;3.45;;;;;14.50;98233.00;;;;4955958;28;20475;-72
2024/03/15 11:33:15;;;;;;;5.63;3.00;;;;;14.60;98232.00;;;;4973286;28;20046;-71
2024/03/15 11:35:44;;;;;;;6.13;2.80;;;;;14.50;98234.00;;;;4942707;28;20495;-71
2024/03/15 11:38:15;;;;;;;4.43;3.20;;;;;14.50;98244.00;;;;4956672;28;20054;-72
2024/03/15 11:40:45;;;;;;;6.07;3.25;;;;;14.50;98236.00;;;;4956225;28;20097;-72
2024/03/15 11:43:13;;;;;;;4.65;3.30;;;;;14.50;98242.00;;;;4973035;28;20043;-70
2024/03/15 11:45:41;;;;;;;4.30;3.35;;;;;14.50;98235.00;;;;4971034;28;20101;-67
2024/03/15 11:48:16;;;;;;;2.90;2.65;;;;;14.50;98242.00;;;;4958103;28;20054;-70
2024/03/15 11:50:44;;;;;;;5.07;2.90;;;;;14.50;98238.00;;;;4956979;29;20134;-70
2024/03/15 11:53:16;;;;;;;4.70;3.10;;;;;14.50;98247.00;;;;4940178;29;20075;-70
2024/03/15 11:55:44;;;;;;;4.90;3.13;;;;;14.60;98238.00;;;;4957157;29;20093;-70
2024/03/15 11:58:14;;;;;;;3.75;2.70;;;;;14.70;98237.00;;;;4956956;29;20564;-69
2024/03/15 12:00:42;;;;;;;3.38;2.33;;;;;14.90;98241.00;;;;4957258;29;20051;-70
2024/03/15 12:03:11;;;;;;;3.35;2.30;;;;;14.90;98236.00;;;;4956802;29;20122;-70
2024/03/15 12:05:40;;;;;;;3.47;2.30;;;;;15.00;98237.00;;;;4940017;29;20047;-70
2024/03/15 12:08:15;;;;;;;2.60;2.25;;;;;15.10;98233.00;;;;4956571;29;20492;-70
2024/03/15 12:10:46;;;;;;;4.82;2.55;;;;;15.10;98228.00;;;;4955309;29;20074;-70
2024/03/15 12:13:20;;;;;;;3.92;2.40;;;;;15.20;98234.00;;;;4956653;28;20058;-69
2024/03/15 12:15:48;;;;;;;2.80;2.03;;;;;15.40;98231.00;;;;4956456;28;20105;-69
2024/03/15 12:18:16;;;;;;;2.97;2.28;;;;;15.40;98237.00;;;;4924562;29;20055;-70
2024/03/15 12:20:44;;;;;;;4.32;2.15;;;;;15.30;98235.00;;;;4962233;29;20134;-70
2024/03/15 12:23:13;;;;;;;3.90;2.20;;;;;15.20;98237.00;;;;4958339;28;20039;-71
2024/03/15 12:25:40;;;;;;;2.20;1.60;;;;;15.10;98239.00;;;;4955719;29;20049;-70
2024/03/15 12:28:12;;;;;;;3.90;2.30;;;;;15.10;98234.00;;;;4939227;29;20075;-71
2024/03/15 12:30:43;;;;;;;3.13;1.85;;;;;15.20;98228.00;;;;4939104;29;20063;-71